This is the latest recevied weather packets stored in our database for station/object CE3PA-5. If no packets are shown the sender has not sent any weather packets the latest 10 day(s).
| Time | Temp. | Humidity | Pressure | Rain* | Wind** | Luminosity | Snow |
|---|---|---|---|---|---|---|---|
| 1777952455 | 10.56° C | 20% | 756.7 hPa | - | - | - | - |
| 1777950655 | 10.56° C | 20% | 756.7 hPa | - | - | - | - |
| 1777949755 | 10° C | 20% | 756.6 hPa | - | - | - | - |
| 1777948855 | 10.56° C | 20% | 756.5 hPa | - | - | - | - |
| 1777946154 | 11.11° C | 20% | 756.5 hPa | - | - | - | - |
| 1777945254 | 11.67° C | 21% | 756.5 hPa | - | - | - | - |
| 1777944354 | 12.22° C | 21% | 756.5 hPa | - | - | - | - |
| 1777942553 | 11.67° C | 21% | 756.4 hPa | - | - | - | - |
| 1777940754 | 12.78° C | 21% | 756.4 hPa | - | - | - | - |
| 1777938953 | 13.89° C | 21% | 756.1 hPa | - | - | - | - |
| 1777938057 | 13.89° C | 21% | 756.1 hPa | - | - | - | - |
| 1777935357 | 13.89° C | 21% | 756 hPa | - | - | - | - |
| 1777934457 | 14.44° C | 21% | 755.9 hPa | - | - | - | - |
| 1777931757 | 18.89° C | 19% | 755.4 hPa | - | - | - | - |
| 1777930856 | 20.56° C | 18% | 755.4 hPa | - | - | - | - |
| 1777929058 | 23.33° C | 17% | 755.3 hPa | - | - | - | - |
| 1777928155 | 24.44° C | 17% | 755.3 hPa | - | - | - | - |
| 1777927255 | 24.44° C | 17% | 755.3 hPa | - | - | - | - |
| 1777926356 | 25° C | 17% | 755.2 hPa | - | - | - | - |
| 1777925455 | 25° C | 17% | 755.1 hPa | - | - | - | - |
| 1777922755 | 21.11° C | 18% | 755.2 hPa | - | - | - | - |
| 1777921857 | 20.56° C | 18% | 755.2 hPa | - | - | - | - |
| 1777920953 | 20° C | 18% | 755.3 hPa | - | - | - | - |
| 1777920053 | 20° C | 18% | 755.5 hPa | - | - | - | - |
| 1777919152 | 20° C | 17% | 755.5 hPa | - | - | - | - |
* Rain since midnight (hover to see other rain measurements)
** Current wind speed in m/s (hover to see current wind gust speed)